EW8920 Duxbury MA US current weather conditions

sailwx.info

Wind from 253 at 12 knots gusting 18

Air temperature 11.7° C
Dewpoint 10.9° C

Last reported at 2019-Dec-10 23:00 UTC.
Time now 2019-Dec-10 23:44 UTC

Location: N 42°00' W 070°36'.
View on Google Maps.

See reports from other nearby stations

  
Tides and Currents Weather Stations Pressure Air Temp Water Temp Dewpoint Dewpoint Depression Visibility Wind Speed Wind Dir Waves Ship Positions
date/time (UTC)wind fromknots sea level pressurealtimeterstation pressurevisibilityair tempwater tempwave heightnotes
2019-Dec-10 23:00 253 12 gusting 18 11.7
2019-Dec-10 22:50 246 8 gusting 15 11.1
2019-Dec-10 22:40 235 8 gusting 13 11.1
2019-Dec-10 22:30 236 8 gusting 13 11.1
2019-Dec-10 22:20 240 8 gusting 13 11.1
2019-Dec-10 22:10 245 6 gusting 13 11.1
2019-Dec-10 22:00 247 9 gusting 18 11.7
2019-Dec-10 21:50 247 11 gusting 18 11.7
2019-Dec-10 21:40 243 7 gusting 13 11.1
2019-Dec-10 21:30 239 9 gusting 15 11.1
2019-Dec-10 21:20 235 6 gusting 13 11.1
2019-Dec-10 21:10 238 7 gusting 13 11.1
2019-Dec-10 21:00 241 9 gusting 14 11.7
2019-Dec-10 20:50 235 7 gusting 16 11.1
2019-Dec-10 20:40 242 7 gusting 13 11.1
2019-Dec-10 20:30 238 6 gusting 12 11.1
2019-Dec-10 20:20 240 5 gusting 13 11.7
2019-Dec-10 20:10 255 11 gusting 14 11.7
2019-Dec-10 20:00 247 6 gusting 12 11.7
2019-Dec-10 19:50 254 12 gusting 17 11.7
2019-Dec-10 19:40 251 14 gusting 19 12.2
2019-Dec-10 19:30 254 13 gusting 20 12.2
2019-Dec-10 19:20 248 14 gusting 20 12.2
2019-Dec-10 19:10 249 12 gusting 19 12.8
2019-Dec-10 19:00 249 12 gusting 19 12.8
2019-Dec-10 18:50 249 13 gusting 22 12.8
2019-Dec-10 18:40 240 10 gusting 17 12.8
2019-Dec-10 18:30 245 9 gusting 15 12.2
2019-Dec-10 18:20 242 9 gusting 16 12.8
2019-Dec-10 18:10 237 9 gusting 18 12.8
2019-Dec-10 18:00 244 7 gusting 18 12.8
2019-Dec-10 17:50 248 8 gusting 15 12.8
2019-Dec-10 17:40 241 8 gusting 15 12.8
2019-Dec-10 17:30 242 9 gusting 15 12.8
2019-Dec-10 17:20 241 9 gusting 18 13.3
2019-Dec-10 17:10 239 7 gusting 14 12.8
2019-Dec-10 17:00 244 9 gusting 17 13.3
2019-Dec-10 16:50 238 9 gusting 15 12.8
2019-Dec-10 16:40 239 7 gusting 15 13.3
2019-Dec-10 16:30 239 8 gusting 19 12.8
2019-Dec-10 16:20 244 9 gusting 19 12.8
2019-Dec-10 16:10 255 13 gusting 20 13.3
2019-Dec-10 16:00 244 11 gusting 19 12.8
2019-Dec-10 15:50 251 13 gusting 26 12.8
2019-Dec-10 15:40 243 10 gusting 21 13.3
2019-Dec-10 15:30 241 9 gusting 19 12.8
2019-Dec-10 15:20 249 13 gusting 20 12.8
2019-Dec-10 15:10 246 13 gusting 19 12.8
2019-Dec-10 15:00 237 9 gusting 19 12.8
2019-Dec-10 14:50 236 10 gusting 16 12.8
2019-Dec-10 14:40 244 8 gusting 14 12.8
2019-Dec-10 14:30 243 9 gusting 14 12.8
2019-Dec-10 14:20 241 9 gusting 19 12.8
2019-Dec-10 14:10 246 13 gusting 19 12.8
2019-Dec-10 14:00 243 11 gusting 20 12.2
2019-Dec-10 13:50 247 13 gusting 20 12.2
2019-Dec-10 13:40 243 9 gusting 16 12.2
2019-Dec-10 13:30 243 9 gusting 17 12.2
2019-Dec-10 13:20 241 12 gusting 17 12.2
2019-Dec-10 13:10 248 9 gusting 17 11.7
2019-Dec-10 13:00 239 8 gusting 16 11.7
2019-Dec-10 12:50 243 6 gusting 14 11.7
2019-Dec-10 12:40 248 8 gusting 15 12.2
2019-Dec-10 12:30 246 6 gusting 15 12.2
2019-Dec-10 12:20 247 8 gusting 16 12.2
2019-Dec-10 12:10 249 12 gusting 19 12.2
2019-Dec-10 12:00 251 10 gusting 18 12.2
2019-Dec-10 11:50 246 13 gusting 22 12.8
2019-Dec-10 11:40 246 9 gusting 24 12.2
2019-Dec-10 11:30 246 12 gusting 23 12.8
2019-Dec-10 11:20 242 10 gusting 25 12.2
2019-Dec-10 11:10 254 15 gusting 21 12.2
2019-Dec-10 11:00 259 18 gusting 23 12.8
2019-Dec-10 10:50 252 12 gusting 19 12.2
2019-Dec-10 10:40 249 13 gusting 23 12.2
2019-Dec-10 10:30 253 15 gusting 26 12.2
2019-Dec-10 10:20 256 17 gusting 26 12.8
2019-Dec-10 10:10 254 15 gusting 26 12.8
2019-Dec-10 10:00 254 18 gusting 26 12.8
2019-Dec-10 09:50 249 17 gusting 26 12.8
2019-Dec-10 09:40 253 14 gusting 30 12.8
2019-Dec-10 09:30 250 13 gusting 25 12.8
2019-Dec-10 09:20 253 15 gusting 29 12.8
2019-Dec-10 09:10 248 14 gusting 21 12.2
2019-Dec-10 09:00 241 9 gusting 19 12.8
2019-Dec-10 08:50 242 12 gusting 26 12.8
2019-Dec-10 08:40 237 10 gusting 23 12.8
2019-Dec-10 08:30 244 13 gusting 26 12.8
2019-Dec-10 08:20 239 13 gusting 23 12.8
2019-Dec-10 08:10 241 11 gusting 20 12.2
2019-Dec-10 08:00 243 13 gusting 26 12.8
2019-Dec-10 07:50 238 17 gusting 26 12.8
2019-Dec-10 07:40 246 14 gusting 25 12.8
2019-Dec-10 07:30 241 13 gusting 23 12.2
2019-Dec-10 07:20 244 13 gusting 19 12.8
2019-Dec-10 07:10 239 12 gusting 20 12.8
2019-Dec-10 07:00 238 12 gusting 23 12.8
2019-Dec-10 06:50 241 13 gusting 26 13.3
2019-Dec-10 06:40 239 11 gusting 26 12.8
2019-Dec-10 06:30 243 13 gusting 22 13.3
2019-Dec-10 06:20 234 15 gusting 23 13.3
2019-Dec-10 06:10 238 15 gusting 29 13.3
2019-Dec-10 06:00 243 14 gusting 24 13.3
2019-Dec-10 05:50 236 14 gusting 26 13.3
2019-Dec-10 05:40 242 11 gusting 26 13.3
2019-Dec-10 05:30 242 13 gusting 26 13.3
2019-Dec-10 05:20 233 15 gusting 25 13.3
2019-Dec-10 05:10 231 19 gusting 31 13.3
2019-Dec-10 05:00 232 19 gusting 30 13.3
2019-Dec-10 04:50 231 21 gusting 34 13.3
2019-Dec-10 04:40 230 24 gusting 33 13.3
2019-Dec-10 04:30 232 23 gusting 33 13.3
2019-Dec-10 04:20 222 26 gusting 34 13.9
2019-Dec-10 04:10 224 23 gusting 32 13.3
2019-Dec-10 04:00 222 20 gusting 37 13.3
2019-Dec-10 03:50 227 25 gusting 33 13.9
2019-Dec-10 03:40 222 25 gusting 38 13.9
2019-Dec-10 03:30 228 23 gusting 33 13.9
2019-Dec-10 03:20 229 22 gusting 36 13.9
2019-Dec-10 03:10 217 25 gusting 33 13.9
2019-Dec-10 03:00 225 25 gusting 35 13.3
2019-Dec-10 02:50 225 25 gusting 39 13.3
2019-Dec-10 02:40 217 24 gusting 32 12.8
2019-Dec-10 02:30 211 21 gusting 29 12.8
2019-Dec-10 02:20 206 18 gusting 27 12.8
2019-Dec-10 02:10 213 18 gusting 23 12.2
2019-Dec-10 02:00 214 17 gusting 24 12.2
2019-Dec-10 01:50 212 14 gusting 21 11.7
2019-Dec-10 01:40 211 14 gusting 21 11.7
2019-Dec-10 01:30 211 15 gusting 21 11.7
2019-Dec-10 01:20 215 13 gusting 20 11.7
2019-Dec-10 01:10 217 16 gusting 22 12.2
2019-Dec-10 01:00 220 15 gusting 21 12.2
2019-Dec-10 00:50 219 16 gusting 21 12.2
2019-Dec-10 00:40 220 13 gusting 19 11.7
2019-Dec-10 00:30 218 13 gusting 18 11.7
2019-Dec-10 00:20 222 14 gusting 19 11.7
2019-Dec-10 00:10 217 15 gusting 19 11.7
2019-Dec-10 00:00 228 16 gusting 20 11.7
2019-Dec-09 23:50 237 11 gusting 21 11.7
2019-Dec-09 23:40 235 17 gusting 25 11.7
2019-Dec-09 23:30 232 17 gusting 25 11.7
2019-Dec-09 23:20 228 19 gusting 27 11.7
2019-Dec-09 23:10 232 15 gusting 24 11.1
2019-Dec-09 23:00 215 19 gusting 24 11.7
2019-Dec-09 22:50 211 19 gusting 26 11.1
2019-Dec-09 22:40 210 15 gusting 24 11.1
2019-Dec-09 22:30 212 15 gusting 25 11.1
2019-Dec-09 22:20 212 17 gusting 30 11.1
2019-Dec-09 22:10 215 18 gusting 29 11.7
2019-Dec-09 22:00 209 19 gusting 32 11.7
2019-Dec-09 21:50 206 19 gusting 29 11.7
2019-Dec-09 21:40 215 21 gusting 31 12.2
2019-Dec-09 21:30 216 22 gusting 33 12.2
2019-Dec-09 21:20 209 17 gusting 32 11.7
2019-Dec-09 21:10 212 19 gusting 34 11.7
2019-Dec-09 21:00 217 18 gusting 33 11.1
2019-Dec-09 20:50 200 24 gusting 33 11.7
2019-Dec-09 20:40 204 24 gusting 34 11.7
2019-Dec-09 20:30 206 23 gusting 33 11.7
2019-Dec-09 20:20 199 25 gusting 35 11.7
2019-Dec-09 20:10 199 27 gusting 36 12.2
2019-Dec-09 20:00 200 26 gusting 33 12.2
2019-Dec-09 19:50 199 25 gusting 32 12.2
2019-Dec-09 19:40 201 23 gusting 33 11.7
2019-Dec-09 19:30 204 23 gusting 33 11.7
2019-Dec-09 19:20 201 20 gusting 30 11.7
2019-Dec-09 19:10 212 20 gusting 33 11.1
2019-Dec-09 19:00 211 24 gusting 35 11.7
2019-Dec-09 18:50 208 21 gusting 35 11.7
2019-Dec-09 18:40 205 22 gusting 32 11.7
2019-Dec-09 18:30 203 21 gusting 27 11.1
2019-Dec-09 18:20 210 16 gusting 26 11.1
2019-Dec-09 18:10 211 19 gusting 32 11.1
2019-Dec-09 18:00 209 22 gusting 34 11.7
2019-Dec-09 17:50 214 20 gusting 33 11.7
2019-Dec-09 17:30 200 24 gusting 30 11.7
2019-Dec-09 17:20 201 20 gusting 31 11.7
2019-Dec-09 17:10 205 22 gusting 30 11.1
2019-Dec-09 17:00 206 19 gusting 29 11.1
2019-Dec-09 16:50 209 17 gusting 25 10.6
2019-Dec-09 16:40 215 14 gusting 27 10.6
2019-Dec-09 16:30 212 16 gusting 25 10.0
2019-Dec-09 16:20 212 15 gusting 27 10.6
2019-Dec-09 16:10 204 20 gusting 28 10.6
2019-Dec-09 16:00 209 19 gusting 27 10.0
2019-Dec-09 15:50 194 15 gusting 21 8.9
2019-Dec-09 15:40 178 15 gusting 21 7.8
2019-Dec-09 15:30 171 14 gusting 20 7.8
2019-Dec-09 15:20 173 17 gusting 21 7.8
2019-Dec-09 15:10 172 15 gusting 20 7.8
2019-Dec-09 15:00 172 15 gusting 19 7.8
2019-Dec-09 14:50 171 13 gusting 18 7.8
2019-Dec-09 14:40 192 12 gusting 14 9.4
2019-Dec-09 14:30 199 12 gusting 15 9.4
2019-Dec-09 14:20 200 10 gusting 13 9.4
2019-Dec-09 14:10 204 10 gusting 13 8.9
2019-Dec-09 14:00 210 9 gusting 16 8.9
2019-Dec-09 13:50 217 10 gusting 14 9.4
2019-Dec-09 13:40 211 10 gusting 16 8.9
2019-Dec-09 13:30 212 11 gusting 18 9.4
2019-Dec-09 13:20 209 12 gusting 19 8.9
2019-Dec-09 13:10 208 10 gusting 16 8.9
2019-Dec-09 13:00 207 11 gusting 14 8.9
2019-Dec-09 12:50 207 9 gusting 14 8.3
2019-Dec-09 12:40 212 9 gusting 15 8.9
2019-Dec-09 12:30 207 12 gusting 17 8.3
2019-Dec-09 12:20 202 13 gusting 18 8.3
2019-Dec-09 12:10 200 13 gusting 17 8.3
2019-Dec-09 12:00 202 11 gusting 14 7.8
2019-Dec-09 11:50 203 12 gusting 15 7.8
2019-Dec-09 11:40 203 12 gusting 16 7.8
2019-Dec-09 11:30 208 12 gusting 18 7.8
2019-Dec-09 11:20 197 10 gusting 15 7.8
2019-Dec-09 11:10 194 9 gusting 13 7.8
2019-Dec-09 11:00 200 11 gusting 15 7.8
2019-Dec-09 10:50 202 11 gusting 13 7.8
2019-Dec-09 10:40 206 10 gusting 14 7.2
2019-Dec-09 10:30 203 11 gusting 13 7.2
2019-Dec-09 10:20 206 9 gusting 15 7.2
2019-Dec-09 10:10 201 12 gusting 15 7.2
2019-Dec-09 10:00 202 12 gusting 14 7.2
2019-Dec-09 09:50 209 7 gusting 12 6.7
2019-Dec-09 09:40 208 7 gusting 10 6.7
2019-Dec-09 09:30 208 6 gusting 10 6.7
2019-Dec-09 09:20 215 8 gusting 13 6.7
2019-Dec-09 09:10 212 9 gusting 13 6.7
2019-Dec-09 09:00 209 9 gusting 13 6.7
2019-Dec-09 08:50 216 9 gusting 13 6.7
2019-Dec-09 08:40 222 11 gusting 15 6.7
2019-Dec-09 08:30 225 10 gusting 13 6.7
2019-Dec-09 08:20 224 11 gusting 16 6.7
2019-Dec-09 08:10 227 11 gusting 16 6.7
2019-Dec-09 08:00 220 13 gusting 17 6.1
2019-Dec-09 07:50 218 13 gusting 19 6.1
2019-Dec-09 07:40 220 13 gusting 19 6.1
2019-Dec-09 07:30 215 15 gusting 22 6.7
2019-Dec-09 07:20 221 16 gusting 23 6.1
2019-Dec-09 07:10 215 18 gusting 24 6.1
2019-Dec-09 07:00 214 14 gusting 20 6.1
2019-Dec-09 06:50 220 13 gusting 19 6.1
2019-Dec-09 06:40 215 13 gusting 20 6.1
2019-Dec-09 06:30 216 12 gusting 17 6.1
2019-Dec-09 06:20 222 13 gusting 19 6.1
2019-Dec-09 06:10 225 12 gusting 19 6.1
2019-Dec-09 06:00 230 12 gusting 19 6.1
2019-Dec-09 05:50 226 13 gusting 19 6.1
2019-Dec-09 05:40 230 13 gusting 17 6.1
2019-Dec-09 05:30 226 11 gusting 15 6.1
2019-Dec-09 05:20 226 12 gusting 18 6.1
2019-Dec-09 05:10 224 12 gusting 17 6.1
2019-Dec-09 05:00 223 13 gusting 18 6.1
2019-Dec-09 04:50 222 12 gusting 19 6.1
2019-Dec-09 04:40 225 11 gusting 17 6.1
2019-Dec-09 04:30 221 12 gusting 16 6.1
2019-Dec-09 04:20 229 13 gusting 18 5.6
2019-Dec-09 04:10 230 11 gusting 17 5.6
2019-Dec-09 04:00 222 10 gusting 13 5.6
2019-Dec-09 03:50 221 8 gusting 12 5.0
2019-Dec-09 03:40 221 6 gusting 10 5.0
2019-Dec-09 03:30 217 5 gusting 9 5.0
2019-Dec-09 03:20 216 6 gusting 8 4.4
2019-Dec-09 03:10 216 4 gusting 7 4.4
2019-Dec-09 03:00 209 5 gusting 7 4.4
2019-Dec-09 02:50 218 3 gusting 6 3.9
2019-Dec-09 02:40 217 3 gusting 8 3.9
2019-Dec-09 02:30 211 5 gusting 8 3.9
2019-Dec-09 02:20 214 6 gusting 10 3.9
2019-Dec-09 02:10 217 7 gusting 12 3.9
2019-Dec-09 02:00 207 8 gusting 13 3.9
2019-Dec-09 01:50 212 9 gusting 14 3.9
2019-Dec-09 01:40 207 10 gusting 14 3.3
2019-Dec-09 01:30 206 11 gusting 15 3.3
2019-Dec-09 01:20 211 8 gusting 13 3.3
2019-Dec-09 01:10 210 8 gusting 13 3.3
2019-Dec-09 01:00 211 7 gusting 14 3.3
2019-Dec-09 00:50 206 10 gusting 14 3.3
2019-Dec-09 00:40 211 7 gusting 12 3.3
2019-Dec-09 00:30 189 12 gusting 16 2.8
2019-Dec-09 00:20 184 11 gusting 15 3.3
2019-Dec-09 00:10 185 11 gusting 18 3.3
2019-Dec-09 00:00 204 11 gusting 14 3.3
2019-Dec-08 23:50 214 9 gusting 13 3.3
2019-Dec-08 23:40 214 9 gusting 16 3.3
2019-Dec-08 23:30 211 8 gusting 14 3.3
2019-Dec-08 23:20 213 8 gusting 13 2.8
2019-Dec-08 23:10 208 9 gusting 13 2.8
2019-Dec-08 23:00 205 10 gusting 15 2.8